• Join FlightAware (Why Join?)
  • Login
  • US Flag 
05:14AM EDT


 

Airport Tracker/Info


-or-


 

Live Flight TrackerFlight Track Log ✈ ASQ5123 ✈ 04-Jul-2014 ✈ KMGM - KATL

Flight Track Log - Related Links

Times and Time Zones

All times are in EDT time to prevent confusion due to time zone crossing. See the ASQ5123 flight status page for this flight to view local times or setup timezone preferences in your user account.

Time Position Orientation Groundspeed Altitude Reporting Facility
EDT Latitude Longitude Course Direction KTS MPH feet Rate Location/Type
09:17AM 32.3019 -86.4200 North 161 185 800  Level Atlanta Center
09:19AM 32.3583 -86.4117 North 223 257 5,600 2,340 Climbing Atlanta Center
09:20AM 32.4014 -86.3414 54° Northeast 327 376 7,900 2,400 Climbing Atlanta Center
09:21AM 32.4467 -86.2614 56° Northeast 299 344 10,400 1,860 Climbing Atlanta Center
09:22AM 32.4853 -86.1983 54° Northeast 299 344 11,700 1,380 Climbing Atlanta Center
09:23AM 32.5522 -86.0817 56° Northeast 326 375 13,200 1,560 Climbing Atlanta Center
09:24AM 32.6081 -85.9794 57° Northeast 348 400 14,900 1,800 Climbing Atlanta Center
09:25AM 32.6636 -85.8844 55° Northeast 355 409 16,900 1,020 Climbing Atlanta Center
09:26AM 32.7217 -85.7819 56° Northeast 360 414 17,000  Climbing Atlanta Center
09:27AM 32.7814 -85.6819 55° Northeast 365 420 17,000  Level Atlanta Center
09:28AM 32.8392 -85.5742 57° Northeast 371 427 17,000  Level Atlanta Center
09:29AM 32.9011 -85.4664 56° Northeast 382 440 17,000  Level Atlanta Center
09:30AM 32.9647 -85.3583 55° Northeast 388 447 17,000  Level Atlanta Center
09:31AM 33.0244 -85.2478 57° Northeast 393 452 17,000 -540 Level Atlanta Center
09:32AM 33.0878 -85.1594 49° Northeast 391 450 16,000 -1,500 Descending Atlanta Center
09:33AM 33.1617 -85.0611 48° Northeast 386 444 14,000 -1,020 Descending Atlanta Center
09:34AM 33.2314 -84.9675 48° Northeast 386 444 14,000 -360 Level Atlanta Center
09:35AM 33.3031 -84.8714 48° Northeast 381 438 13,300 -780 Descending Atlanta Center
09:36AM 33.3767 -84.7800 46° Northeast 381 438 12,500 -780 Descending Atlanta Center
09:36AM 33.4333 -84.7167 43° Northeast 353 406 12,000 -300 Descending Atlanta TRACON
09:37AM 33.4833 -84.6333 54° Northeast 285 328 12,000 -180 Level Atlanta TRACON
09:38AM 33.5333 -84.5667 48° Northeast 251 289 11,700 -900 Descending Atlanta TRACON
09:39AM 33.5333 -84.5000 90° East 251 289 10,400 -1,320 Descending Atlanta TRACON
09:40AM 33.5333 -84.4167 90° East 247 284 9,100 -1,320 Descending Atlanta TRACON
09:41AM 33.5333 -84.3333 90° East 231 266 7,700 -1,560 Descending Atlanta TRACON
09:42AM 33.5333 -84.2500 90° East 220 253 6,000 -1,440 Descending Atlanta TRACON
09:43AM 33.5333 -84.1833 90° East 208 239 4,900 -1,260 Descending Atlanta TRACON
09:44AM 33.5667 -84.1500 40° Northeast 222 255 3,700 -900 Descending Atlanta TRACON
09:45AM 33.6167 -84.2000 320° Northwest 222 255 3,200 -360 Descending Atlanta TRACON
09:46AM 33.6333 -84.2667 287° West 199 229 3,000 -300 Descending Atlanta TRACON
09:47AM 33.6333 -84.3333 270° West 187 215 2,600 -660 Descending Atlanta TRACON
09:48AM 33.6333 -84.3833 270° West 138 159 1,700 -900 Descending Atlanta TRACON
09:50AM 33.6333 -84.4167 306° West  Level FlightAware Approximate
09:57AM 33.6367 -84.4279 306° West  Level Estimated
09:58AM 33.6367 -84.4279 143° Southeast  Level Estimated